createdAt,value
2019-03-22T00:01:33.671Z,23.60
2019-03-22T00:06:33.640Z,17.40
2019-03-22T00:11:33.654Z,22.90
2019-03-22T00:16:33.681Z,22.70
2019-03-22T00:21:33.680Z,21.70
2019-03-22T00:26:33.669Z,22.50
2019-03-22T00:31:33.671Z,21.10
2019-03-22T00:36:33.663Z,19.50
2019-03-22T00:41:33.656Z,26.40
2019-03-22T00:46:33.671Z,23.80
2019-03-22T00:51:33.645Z,19.90
2019-03-22T00:56:33.666Z,20.40
2019-03-22T01:01:33.672Z,23.10
2019-03-22T01:06:33.641Z,23.10
2019-03-22T01:11:33.653Z,24.00
2019-03-22T01:16:33.669Z,21.00
2019-03-22T01:21:33.647Z,20.10
2019-03-22T01:26:33.634Z,23.70
2019-03-22T01:31:33.672Z,15.90
2019-03-22T01:36:33.641Z,17.80
2019-03-22T01:41:33.633Z,19.60
2019-03-22T01:46:33.667Z,20.90
2019-03-22T01:51:33.611Z,24.30
2019-03-22T01:56:33.644Z,21.60
2019-03-22T02:01:33.659Z,21.10
2019-03-22T02:06:33.615Z,20.10
2019-03-22T02:11:33.663Z,19.70
2019-03-22T02:16:33.659Z,27.00
2019-03-22T02:21:33.625Z,25.70
2019-03-22T02:26:33.664Z,18.00
2019-03-22T02:31:33.656Z,19.90
2019-03-22T02:36:33.619Z,20.30
2019-03-22T02:41:33.639Z,20.00
2019-03-22T02:46:33.637Z,35.60
2019-03-22T02:51:33.611Z,21.20
2019-03-22T02:56:33.635Z,16.40
2019-03-22T03:01:33.642Z,27.40
2019-03-22T03:06:33.694Z,24.50
2019-03-22T03:11:33.614Z,19.70
2019-03-22T03:16:33.640Z,20.40
2019-03-22T03:21:33.625Z,20.70
2019-03-22T03:26:33.644Z,25.30
2019-03-22T03:31:33.577Z,16.50
2019-03-22T03:36:35.047Z,25.30
2019-03-22T03:41:33.611Z,25.60
2019-03-22T03:46:33.635Z,16.20
2019-03-22T03:51:33.615Z,26.80
2019-03-22T03:56:33.618Z,21.80
2019-03-22T04:01:33.633Z,20.90
2019-03-22T04:06:33.589Z,25.90
2019-03-22T04:11:33.597Z,20.80
2019-03-22T04:16:33.582Z,16.10
2019-03-22T04:21:33.583Z,21.90
2019-03-22T04:26:33.608Z,17.40
2019-03-22T04:31:33.628Z,20.60
2019-03-22T04:36:33.596Z,22.60
2019-03-22T04:41:33.623Z,20.30
2019-03-22T04:46:33.608Z,29.10
2019-03-22T04:51:33.580Z,37.70
2019-03-22T04:56:33.610Z,36.90
2019-03-22T05:01:33.615Z,32.10
2019-03-22T05:06:33.577Z,31.50
2019-03-22T05:11:33.597Z,27.70
2019-03-22T05:16:33.605Z,30.60
2019-03-22T05:21:33.578Z,30.60
2019-03-22T05:26:33.574Z,26.50
2019-03-22T05:31:33.594Z,24.00
2019-03-22T05:36:33.578Z,22.50
2019-03-22T05:41:33.566Z,22.10
2019-03-22T05:46:33.593Z,36.80
2019-03-22T05:51:33.566Z,27.10
2019-03-22T05:56:33.576Z,21.30
2019-03-22T06:01:33.586Z,23.40
2019-03-22T06:06:33.576Z,32.10
2019-03-22T06:11:33.560Z,25.30
2019-03-22T06:16:33.572Z,19.50
2019-03-22T06:21:33.551Z,27.10
2019-03-22T06:26:33.580Z,23.40
2019-03-22T06:31:33.601Z,27.30
2019-03-22T06:36:33.576Z,26.50
2019-03-22T06:41:33.572Z,25.10
2019-03-22T06:46:33.587Z,23.10
2019-03-22T06:51:33.558Z,25.80
2019-03-22T06:56:33.562Z,25.10
2019-03-22T07:01:33.579Z,21.10
2019-03-22T07:06:33.567Z,23.00
2019-03-22T07:11:33.573Z,19.20
2019-03-22T07:16:33.581Z,22.20
2019-03-22T07:21:33.542Z,18.30
2019-03-22T07:26:33.560Z,15.00
2019-03-22T07:31:35.749Z,23.70
2019-03-22T07:36:33.539Z,16.40
2019-03-22T07:41:33.548Z,17.80
2019-03-22T07:46:33.555Z,16.30
2019-03-22T07:51:33.539Z,33.20
2019-03-22T07:56:33.558Z,21.70
2019-03-22T08:01:33.553Z,17.70
2019-03-22T08:06:33.566Z,24.70
2019-03-22T08:11:33.560Z,22.50
2019-03-22T08:16:33.561Z,21.60
2019-03-22T08:21:33.555Z,33.90
2019-03-22T08:26:33.554Z,13.70
2019-03-22T08:31:33.529Z,20.30
2019-03-22T08:36:33.549Z,17.60
2019-03-22T08:41:33.572Z,15.50
2019-03-22T08:46:33.537Z,15.40
2019-03-22T08:51:33.541Z,14.00
2019-03-22T08:56:35.900Z,12.10
2019-03-22T09:01:33.538Z,11.80
2019-03-22T09:06:33.516Z,13.70
2019-03-22T09:11:33.540Z,11.50
2019-03-22T09:16:33.545Z,11.80
2019-03-22T09:21:33.536Z,9.40
2019-03-22T09:26:33.586Z,12.70
2019-03-22T09:31:33.552Z,11.00
2019-03-22T09:36:33.491Z,10.70
2019-03-22T09:41:33.604Z,13.10
2019-03-22T09:46:33.566Z,8.70
2019-03-22T09:51:33.561Z,9.40
2019-03-22T09:56:46.047Z,9.70
2019-03-22T10:01:33.545Z,10.80
2019-03-22T10:06:33.626Z,10.50
2019-03-22T10:11:33.550Z,11.60
2019-03-22T10:16:33.572Z,7.10
2019-03-22T10:21:33.533Z,7.80
2019-03-22T10:26:33.627Z,7.50
2019-03-22T10:31:37.476Z,9.20
2019-03-22T10:36:33.598Z,7.80
2019-03-22T10:41:33.598Z,8.50
2019-03-22T10:46:33.605Z,8.00
2019-03-22T10:51:33.610Z,8.40
2019-03-22T10:56:33.562Z,10.40
2019-03-22T11:01:46.565Z,12.90
2019-03-22T11:06:33.574Z,12.00
2019-03-22T11:11:33.578Z,12.90
2019-03-22T11:16:33.560Z,11.20
2019-03-22T11:21:33.555Z,13.50
2019-03-22T11:26:33.609Z,14.80
2019-03-22T11:31:39.894Z,9.60
2019-03-22T11:36:33.566Z,8.90
2019-03-22T11:41:33.549Z,10.20
2019-03-22T11:46:33.567Z,12.30
2019-03-22T11:51:33.565Z,14.90
2019-03-22T11:56:33.625Z,8.90
2019-03-22T12:01:33.581Z,9.20
2019-03-22T12:06:33.569Z,8.60
2019-03-22T12:11:33.614Z,11.70
2019-03-22T12:16:33.601Z,9.70
2019-03-22T12:21:33.576Z,9.50
2019-03-22T12:26:33.582Z,9.40
2019-03-22T12:31:33.585Z,10.10
2019-03-22T12:36:33.553Z,9.90
2019-03-22T12:41:33.607Z,12.80
2019-03-22T12:46:33.586Z,13.00
2019-03-22T12:51:33.579Z,10.10
2019-03-22T12:56:33.589Z,9.50
2019-03-22T13:01:33.608Z,11.10
2019-03-22T13:06:33.573Z,10.60
2019-03-22T13:11:33.592Z,8.20
2019-03-22T13:16:33.608Z,15.30
2019-03-22T13:21:33.594Z,9.10
2019-03-22T13:26:33.615Z,8.40
2019-03-22T13:31:33.612Z,9.60
2019-03-22T13:36:33.567Z,8.90
2019-03-22T13:41:33.586Z,9.10
2019-03-22T13:46:40.197Z,7.20
2019-03-22T13:51:33.582Z,7.00
2019-03-22T13:56:33.638Z,10.00
2019-03-22T14:01:33.610Z,7.00
2019-03-22T14:06:33.572Z,7.10
2019-03-22T14:11:33.644Z,7.60
2019-03-22T14:16:33.595Z,9.40
2019-03-22T14:21:33.626Z,12.40
2019-03-22T14:26:33.649Z,6.70
2019-03-22T14:31:33.649Z,8.20
2019-03-22T14:36:33.613Z,6.60
2019-03-22T14:41:33.617Z,6.70
2019-03-22T14:46:33.612Z,7.80
2019-03-22T14:51:35.009Z,7.20
2019-03-22T14:56:33.627Z,7.40
2019-03-22T15:01:33.652Z,7.90
2019-03-22T15:06:33.621Z,9.50
2019-03-22T15:11:33.636Z,9.90
2019-03-22T15:16:33.648Z,7.60
2019-03-22T15:21:33.597Z,16.00
2019-03-22T15:26:33.664Z,10.90
2019-03-22T15:31:33.648Z,9.20
2019-03-22T15:36:33.635Z,11.50
2019-03-22T15:41:33.662Z,15.70
2019-03-22T15:46:33.669Z,20.10
2019-03-22T15:51:33.661Z,13.90
2019-03-22T15:56:33.658Z,9.00
2019-03-22T16:01:33.667Z,10.90
2019-03-22T16:06:33.642Z,10.70
2019-03-22T16:11:33.649Z,14.10
2019-03-22T16:16:33.671Z,10.40
2019-03-22T16:21:33.667Z,10.90
2019-03-22T16:26:33.702Z,9.40
2019-03-22T16:31:33.656Z,9.10
2019-03-22T16:36:33.648Z,9.40
2019-03-22T16:41:33.687Z,15.60
2019-03-22T16:46:33.862Z,10.80
2019-03-22T16:51:33.630Z,9.40
2019-03-22T16:56:33.672Z,12.60
2019-03-22T17:01:33.677Z,9.70
2019-03-22T17:06:33.655Z,9.80
2019-03-22T17:11:33.664Z,14.70
2019-03-22T17:16:33.703Z,19.10
2019-03-22T17:21:33.663Z,19.10
2019-03-22T17:26:33.665Z,14.10
2019-03-22T17:31:33.670Z,53.70
2019-03-22T17:36:33.677Z,16.90
2019-03-22T17:41:33.648Z,56.40
2019-03-22T17:46:33.679Z,43.70
2019-03-22T17:51:33.669Z,19.10
2019-03-22T17:56:33.676Z,25.50
2019-03-22T18:01:33.675Z,64.70
2019-03-22T18:06:33.641Z,33.50
2019-03-22T18:11:33.668Z,19.90
2019-03-22T18:16:33.665Z,22.50
2019-03-22T18:21:33.662Z,22.40
2019-03-22T18:26:33.693Z,15.50
2019-03-22T18:31:33.677Z,19.10
2019-03-22T18:36:33.653Z,11.60
2019-03-22T18:41:33.683Z,10.90
2019-03-22T18:46:33.665Z,13.00
2019-03-22T18:51:33.666Z,26.20
2019-03-22T18:56:33.675Z,17.70
2019-03-22T19:01:33.655Z,13.60
2019-03-22T19:06:33.668Z,13.20
2019-03-22T19:11:33.681Z,15.90
2019-03-22T19:16:33.671Z,14.60
2019-03-22T19:21:33.653Z,15.30
2019-03-22T19:26:33.662Z,21.00
2019-03-22T19:31:33.655Z,23.30
2019-03-22T19:36:33.658Z,22.60
2019-03-22T19:41:33.676Z,30.10
2019-03-22T19:46:33.645Z,22.40
2019-03-22T19:51:33.674Z,18.80
2019-03-22T19:56:33.702Z,28.50
2019-03-22T20:01:33.679Z,22.50
2019-03-22T20:06:33.674Z,42.30
2019-03-22T20:11:33.707Z,35.90
2019-03-22T20:16:33.679Z,27.70
2019-03-22T20:21:33.667Z,79.80
2019-03-22T20:26:33.668Z,41.00
2019-03-22T20:31:33.685Z,27.40
2019-03-22T20:36:33.662Z,37.20
2019-03-22T20:41:33.668Z,28.40
2019-03-22T20:46:33.687Z,21.00
2019-03-22T20:51:33.666Z,26.00
2019-03-22T20:56:33.676Z,21.90
2019-03-22T21:01:33.657Z,25.50
2019-03-22T21:06:33.630Z,21.20
2019-03-22T21:11:33.668Z,24.20
2019-03-22T21:16:33.663Z,21.30
2019-03-22T21:21:36.553Z,20.70
2019-03-22T21:26:33.685Z,21.70
2019-03-22T21:31:33.681Z,22.20
2019-03-22T21:36:33.663Z,19.40
2019-03-22T21:41:33.666Z,16.30
2019-03-22T21:46:33.638Z,21.50
2019-03-22T21:51:33.646Z,18.20
2019-03-22T21:56:33.661Z,24.10
2019-03-22T22:01:33.661Z,19.70
2019-03-22T22:06:33.633Z,17.40
2019-03-22T22:11:33.677Z,20.20
2019-03-22T22:16:33.700Z,18.00
2019-03-22T22:21:33.729Z,16.90
2019-03-22T22:26:33.651Z,22.00
2019-03-22T22:31:33.681Z,25.10
2019-03-22T22:36:33.663Z,21.30
2019-03-22T22:41:33.674Z,20.90
2019-03-22T22:46:33.622Z,22.10
2019-03-22T22:51:33.643Z,18.50
2019-03-22T22:56:33.642Z,20.40
2019-03-22T23:01:33.660Z,17.20
2019-03-22T23:06:33.659Z,25.90
2019-03-22T23:11:33.666Z,25.10
2019-03-22T23:16:33.660Z,28.10
2019-03-22T23:21:33.640Z,22.30
2019-03-22T23:26:33.677Z,24.20
2019-03-22T23:31:33.656Z,21.00
2019-03-22T23:36:33.641Z,18.50
2019-03-22T23:41:33.663Z,18.40
2019-03-22T23:46:33.673Z,18.50
2019-03-22T23:51:33.643Z,25.00
2019-03-22T23:56:33.672Z,23.20
